Terminal Aerodrome Forecast
Issued by NWS

Home | Current Version | Previous Version | Text Only | Print | Product List | Glossary On
Versions: 1 2 3 4 5 6 7 8 9 10 11 12 13 14 15 16
000
FTUS44 KTSA 031100
TAFXNA
TAF
KXNA 031120Z 0312/0412 20007KT 3/4SM BR VV002
      TEMPO 0312/0314 3SM BR OVC004
     FM031400 21011KT P6SM OVC004
     FM032000 22009G19KT P6SM OVC015
     FM040200 33009KT P6SM VCSH OVC015
      TEMPO 0402/0406 3SM -RA BR OVC010
     FM040600 36010KT 3SM -FZRA OVC005=

USA.gov is the U.S. government's official web portal to all federal, state and local government web resources and services.